Flight Track Log - Related Links

Times and Time Zones

All times are in EDT time to prevent confusion due to time zone crossing. See the EJA930 flight status page for this flight to view local times or setup timezone preferences in your user account.

Time Position Orientation Groundspeed Altitude Reporting Facility
EDT Latitude Longitude Course Direction KTS MPH feet Rate Location/Type
Wed 06:28:39 AM 40.7300 -75.5361 56° Northeast 321 369 8,000  Level New York Center
Wed 06:29:40 AM 40.8106 -75.5058 16° North 326 375 8,300 1,438 Climbing New York Center
Wed 06:30:40 AM 40.8950 -75.4761 15° North 321 369 10,900 1,785 Climbing New York Center
Wed 06:31:41 AM 40.9911 -75.4664 North 321 369 11,900 1,412 Climbing New York Center
Wed 06:32:00 AM 41.3856 -75.4667 North  Level FlightAware Approximate
Wed 06:32:39 AM 41.0869 -75.4703 358° North 361 415 13,700  Level New York Center
Wed 06:33:00 AM 41.5001 -75.4332 56° Northeast  Level FlightAware Approximate
Wed 06:33:40 AM 41.2014 -75.4725 359° North 372 428 15,900  Level New York Center
Wed 06:34:40 AM 41.3053 -75.4744 359° North 372 428 17,800 1,934 Climbing New York Center
Wed 06:35:41 AM 41.4072 -75.4786 358° North 372 428 19,800 1,815 Climbing New York Center
Wed 06:36:39 AM 41.4919 -75.4458 16° North 372 428 21,400 1,608 Climbing New York Center
Wed 06:38:55 AM 41.6783 -75.2253 41° Northeast 429 494 25,000 1,561 Climbing Boston Center
Wed 06:39:55 AM 41.7644 -75.1094 45° Northeast 424 488 26,500 1,500 Climbing Boston Center
Wed 06:40:55 AM 41.8525 -74.9958 44° Northeast 430 495 28,000 1,250 Climbing Boston Center
Wed 06:41:55 AM 41.9642 -74.8497 44° Northeast 442 509 29,000 500 Climbing Boston Center
Wed 06:42:55 AM 42.0425 -74.6961 55° Northeast 472 543 29,000  Level Boston Center
Wed 06:43:55 AM 42.1247 -74.5311 56° Northeast 500 575 29,000  Level Boston Center
Wed 06:44:55 AM 42.2178 -74.3436 56° Northeast 535 616 29,000  Level Boston Center
Wed 06:45:55 AM 42.2997 -74.1719 57° Northeast 545 627 29,000  Level Boston Center
Wed 06:46:55 AM 42.3833 -74.0028 56° Northeast 545 627 29,000 -100 Level Boston Center
Wed 06:47:55 AM 42.4669 -73.8306 57° Northeast 545 627 28,800 -900 Descending Boston Center
Wed 06:48:55 AM 42.5481 -73.6575 57° Northeast 545 627 27,200 -1,850 Descending Boston Center
Wed 06:49:55 AM 42.6289 -73.4897 57° Northeast 545 627 25,100 -2,050 Descending Boston Center
Wed 06:50:55 AM 42.7075 -73.3217 57° Northeast 539 620 23,100 -1,850 Descending Boston Center
Wed 06:51:55 AM 42.7753 -73.1756 58° Northeast 524 603 21,400 -1,800 Descending Boston Center
Wed 06:52:55 AM 42.8492 -73.0206 57° Northeast 509 586 19,500 -1,250 Descending Boston Center
Wed 06:53:55 AM 42.9206 -72.8653 58° Northeast 488 562 18,900 -1,000 Descending Boston Center
Wed 06:54:55 AM 42.9900 -72.7125 58° Northeast 480 552 17,500 -1,900 Descending Boston Center
Wed 06:55:55 AM 43.0611 -72.5622 57° Northeast 475 547 15,100 -2,450 Descending Boston Center
Wed 06:56:55 AM 43.1256 -72.4203 58° Northeast 461 531 12,600 -2,150 Descending Boston Center
Wed 06:57:55 AM 43.1861 -72.2833 59° Northeast 435 501 10,800 -1,300 Descending Boston Center
Wed 06:58:55 AM 43.2400 -72.1636 58° Northeast 360 414 10,000 -1,200 Descending Boston Center
Wed 06:59:55 AM 43.2792 -72.0722 59° Northeast 311 358 8,400 -1,750 Descending Boston Center
Wed 07:00:55 AM 43.3269 -71.9719 57° Northeast 288 331 6,500 -1,600 Descending Boston Center
Wed 07:01:55 AM 43.3639 -71.8861 59° Northeast 288 331 5,200 -700 Descending Boston Center
Wed 07:02:55 AM 43.4072 -71.7914 58° Northeast 272 313 5,100 -318 Descending Boston Center
Wed 07:04:07 AM 43.4422 -71.7139 58° Northeast 272 313 4,500 -636 Descending Boston Center
Wed 07:05:07 AM 43.4853 -71.5989 63° Northeast 266 306 3,700 -900 Descending Boston Center
Wed 07:06:07 AM 43.4950 -71.5156 81° East 232 267 2,700 -800 Descending Boston Center
Wed 07:07:07 AM 43.5236 -71.4581 56° Northeast 197 227 2,100 -300 Descending Boston Center
Wed 07:08:07 AM 43.5461 -71.3947 64° Northeast 180 207 2,100  Level Boston Center
Wed 07:09:07 AM 43.5661 -71.3283 67° East 180 207 2,100  Level Boston Center
Wed 07:10:07 AM 43.5864 -71.2736 63° Northeast 180 207 2,100 3,450 Level Boston Center
Wed 07:11:07 AM 43.6067 -71.2100 66° East 180 207 9,000 3,450 Climbing Boston Center
Wed 07:12:07 AM 43.6267 -71.1436 67° East 180 207 9,000  Level Boston Center
Wed 07:14:00 AM 43.5782 -71.3918 258° West  Level Estimated
Wed 07:21:00 AM 43.5667 -71.4167 258° West  Level FlightAware Approximate
Wed 07:22:00 AM 43.5730 -71.4178 258° West  Level Estimated
Wed 07:23:00 AM 43.5667 -71.4167 258° West  Level FlightAware Approximate
Wed 07:24:00 AM 43.5730 -71.4178 258° West  Level Estimated

Login

Don't have an account? Register now (free) for customized features, flight alerts, and more!